Time;durP1;ratioP1;P1;durP2;ratioP2;P2;SDS_P1;SDS_P2;PMS_P1;PMS_P2;Temp;Humidity;BMP_temperature;BMP_pressure;BME280_temperature;BME280_humidity;BME280_pressure;Samples;Min_cycle;Max_cycle;Signal;HPM_P1;HPM_P2
2021/06/20 00:00:32;;;;;;;11.33;2.60;;;;;;;22.31;100.00;98892.63;1664589;84;21517;-68
2021/06/20 00:03:03;;;;;;;6.05;2.30;;;;;;;22.32;100.00;98901.56;1664657;86;21094;-66
2021/06/20 00:05:59;;;;;;;6.08;2.20;;;;;;;22.32;100.00;98904.25;1664410;84;20927;-68
2021/06/20 00:08:31;;;;;;;4.35;2.37;;;;;;;22.32;100.00;98906.94;1664767;84;21498;-68
2021/06/20 00:11:17;;;;;;;11.83;2.50;;;;;;;22.31;100.00;98927.56;1664406;84;21435;-68
2021/06/20 00:13:53;;;;;;;6.22;2.22;;;;;;;22.29;100.00;98929.00;1664661;86;20964;-67
2021/06/20 00:16:30;;;;;;;7.92;2.37;;;;;;;22.26;100.00;98930.52;1664233;84;21432;-68
2021/06/20 00:18:59;;;;;;;9.03;3.25;;;;;;;22.23;100.00;98928.00;1664458;86;20932;-68
2021/06/20 00:21:36;;;;;;;11.08;3.83;;;;;;;22.22;100.00;98951.77;1661988;85;21423;-68
2021/06/20 00:24:13;;;;;;;7.17;3.12;;;;;;;22.23;100.00;98964.28;1664722;84;21467;-68
2021/06/20 00:26:49;;;;;;;7.05;2.83;;;;;;;22.21;100.00;98959.44;1663333;84;21079;-67
2021/06/20 00:29:25;;;;;;;6.17;2.45;;;;;;;22.21;100.00;98954.53;1661953;84;21439;-66
2021/06/20 00:32:16;;;;;;;6.25;2.37;;;;;;;22.19;100.00;98957.31;1663787;84;20948;-66
2021/06/20 00:34:37;;;;;;;6.37;2.55;;;;;;;22.19;100.00;98960.48;1661813;85;20971;-66
2021/06/20 00:37:15;;;;;;;7.90;2.30;;;;;;;22.19;100.00;98948.38;1662774;84;21497;-66
2021/06/20 00:39:52;;;;;;;12.28;2.95;;;;;;;22.18;100.00;98962.77;1663536;85;20876;-67
2021/06/20 00:42:35;;;;;;;8.13;2.58;;;;;;;22.17;100.00;98969.09;1662984;85;21484;-67
2021/06/20 00:45:39;;;;;;;10.20;2.65;;;;;;;22.16;100.00;98964.67;1664011;84;21375;-68
2021/06/20 00:48:34;;;;;;;6.95;2.62;;;;;;;22.14;100.00;98963.42;1662821;84;21499;-67
2021/06/20 00:51:08;;;;;;;10.28;2.83;;;;;;;22.15;100.00;98957.09;1661875;85;20970;-68
2021/06/20 00:53:36;;;;;;;5.97;2.80;;;;;;;22.16;100.00;98950.77;1664394;84;21443;-68
2021/06/20 00:56:19;;;;;;;5.47;2.45;;;;;;;22.15;100.00;98956.23;1664624;85;21387;-67
2021/06/20 00:59:02;;;;;;;11.38;2.80;;;;;;;22.13;100.00;98960.34;1664410;84;21475;-67
2021/06/20 01:01:41;;;;;;;;;;;;;;;22.14;100.00;98964.77;1666618;84;21467;-67
2021/06/20 01:04:11;;;;;;;8.70;2.30;;;;;;;22.16;100.00;98957.48;1664478;84;20402;-67
2021/06/20 01:06:42;;;;;;;3.72;2.15;;;;;;;22.14;100.00;98948.64;1664767;85;21466;-68
2021/06/20 01:09:15;;;;;;;7.53;2.40;;;;;;;22.13;100.00;98932.14;1664463;84;21475;-67
2021/06/20 01:11:49;;;;;;;8.95;2.50;;;;;;;22.12;100.00;98930.41;1675672;85;21587;-66
2021/06/20 01:14:22;;;;;;;6.37;2.25;;;;;;;22.13;100.00;98932.61;1663520;84;21482;-68
2021/06/20 01:16:56;;;;;;;6.90;2.47;;;;;;;22.14;100.00;98927.63;1664619;84;21035;-67
2021/06/20 01:19:27;;;;;;;6.62;2.37;;;;;;;22.15;100.00;98934.26;1664448;84;21506;-68
2021/06/20 01:22:17;;;;;;;5.37;2.42;;;;;;;22.14;100.00;98930.31;1664764;84;21259;-68
2021/06/20 01:24:57;;;;;;;4.63;2.10;;;;;;;22.13;100.00;98925.89;1664216;84;21437;-67
2021/06/20 01:27:38;;;;;;;6.65;2.10;;;;;;;22.14;100.00;98922.25;1657891;84;20995;-67
2021/06/20 01:30:24;;;;;;;5.87;2.10;;;;;;;22.14;100.00;98916.88;1664385;84;20920;-68
2021/06/20 01:32:47;;;;;;;6.62;2.52;;;;;;;22.15;100.00;98926.67;1664181;85;21529;-68
2021/06/20 01:35:22;;;;;;;6.62;2.30;;;;;;;22.13;100.00;98924.08;1664583;84;21506;-66
2021/06/20 01:38:00;;;;;;;5.90;2.50;;;;;;;22.11;100.00;98908.52;1663823;86;21438;-68
2021/06/20 01:40:33;;;;;;;4.53;2.10;;;;;;;22.11;100.00;98909.00;1664425;84;20954;-68
2021/06/20 01:43:04;;;;;;;8.70;2.40;;;;;;;22.10;100.00;98901.42;1664479;85;21015;-67
2021/06/20 01:45:39;;;;;;;6.20;2.37;;;;;;;22.11;100.00;98905.84;1664645;84;20911;-68
2021/06/20 01:48:21;;;;;;;5.10;2.12;;;;;;;22.13;100.00;98911.13;1664389;84;21243;-67
2021/06/20 01:50:54;;;;;;;5.95;2.65;;;;;;;22.13;100.00;98916.50;1664430;84;20860;-68
2021/06/20 01:53:25;;;;;;;;;;;;;;;22.12;100.00;98917.45;1666041;85;21471;-66
2021/06/20 01:55:58;;;;;;;6.80;2.12;;;;;;;22.13;100.00;98935.30;1664335;84;20398;-68
2021/06/20 01:58:29;;;;;;;7.72;2.12;;;;;;;22.12;100.00;98948.34;1634392;86;21450;-67
2021/06/20 02:01:04;;;;;;;8.38;2.10;;;;;;;22.10;100.00;98955.14;1641378;86;21143;-68
2021/06/20 02:03:35;;;;;;;;;;;;;;;22.10;100.00;98963.67;1643891;86;20935;-67
2021/06/20 02:06:09;;;;;;;4.90;2.00;;;;;;;22.10;100.00;98960.99;1641181;86;20463;-67
2021/06/20 02:08:45;;;;;;;4.50;2.12;;;;;;;22.08;100.00;98957.52;1640536;86;21455;-68
2021/06/20 02:11:32;;;;;;;5.92;2.25;;;;;;;22.07;100.00;98955.31;1641527;86;21550;-67
2021/06/20 02:14:04;;;;;;;10.08;2.00;;;;;;;22.08;100.00;98953.50;1614154;87;21290;-68
2021/06/20 02:16:36;;;;;;;6.78;2.08;;;;;;;22.06;100.00;98954.92;1640844;86;21434;-67
2021/06/20 02:19:16;;;;;;;5.42;2.10;;;;;;;22.06;100.00;98956.75;1640975;86;21519;-66
2021/06/20 02:21:56;;;;;;;8.98;2.45;;;;;;;22.03;100.00;98948.83;1638786;86;21506;-67
2021/06/20 02:24:36;;;;;;;4.00;2.58;;;;;;;22.03;100.00;98961.81;1616456;87;21549;-68
2021/06/20 02:27:09;;;;;;;4.00;1.98;;;;;;;22.03;100.00;98970.31;1640359;86;21505;-68
2021/06/20 02:29:44;;;;;;;6.37;2.17;;;;;;;22.03;100.00;98968.97;1634771;86;21506;-68
2021/06/20 02:32:17;;;;;;;4.80;2.30;;;;;;;22.03;100.00;98962.25;1641102;86;21521;-67
2021/06/20 02:34:47;;;;;;;7.80;2.20;;;;;;;22.01;100.00;98965.03;1640175;86;21507;-66
2021/06/20 02:37:19;;;;;;;9.25;2.45;;;;;;;22.00;100.00;98974.91;1641274;87;21515;-68
2021/06/20 02:39:51;;;;;;;6.37;2.10;;;;;;;22.00;100.00;98957.44;1641524;86;21439;-68
2021/06/20 02:42:27;;;;;;;8.28;2.15;;;;;;;22.00;100.00;98942.67;1640367;86;21598;-67
2021/06/20 02:44:57;;;;;;;7.97;2.47;;;;;;;21.99;100.00;98946.79;1641633;87;21514;-68
2021/06/20 02:47:33;;;;;;;8.25;1.87;;;;;;;21.99;100.00;98949.47;1641215;87;21514;-67
2021/06/20 02:49:59;;;;;;;4.33;2.10;;;;;;;21.96;100.00;98952.33;1640778;87;21467;-65
2021/06/20 02:52:28;;;;;;;10.28;2.22;;;;;;;21.95;100.00;98955.97;1641440;86;21506;-66
2021/06/20 05:43:49;;;;;;;4.75;1.98;;;;;;;22.81;100.00;98929.18;1786678;79;22716;-67
2021/06/20 05:46:19;;;;;;;5.25;2.33;;;;;;;22.97;100.00;98932.68;1789017;80;21016;-67
2021/06/20 05:48:50;;;;;;;6.27;2.60;;;;;;;23.06;100.00;98931.26;1789131;80;21131;-66
2021/06/20 05:51:18;;;;;;;4.22;1.98;;;;;;;23.13;100.00;98931.27;1791438;79;21480;-66
2021/06/20 05:53:46;;;;;;;6.30;2.10;;;;;;;23.17;100.00;98929.65;1763743;81;21081;-68
2021/06/20 05:56:14;;;;;;;7.90;2.62;;;;;;;23.23;100.00;98925.75;1791419;80;20938;-66
2021/06/20 05:58:46;;;;;;;8.58;2.25;;;;;;;23.31;100.00;98911.82;1763826;81;20965;-66
2021/06/20 06:01:15;;;;;;;6.15;1.95;;;;;;;23.39;100.00;98902.31;1791476;79;21925;-67
2021/06/20 06:03:46;;;;;;;10.48;2.10;;;;;;;23.48;100.00;98895.00;1763918;81;20932;-66
2021/06/20 06:06:16;;;;;;;5.92;2.10;;;;;;;23.58;100.00;98887.72;1764030;81;20876;-66
2021/06/20 06:08:46;;;;;;;15.20;2.10;;;;;;;23.65;100.00;98883.23;1773618;80;20926;-67
2021/06/20 06:11:16;;;;;;;2.58;1.65;;;;;;;23.76;100.00;98885.23;1791074;80;21480;-66
2021/06/20 06:13:44;;;;;;;4.58;1.77;;;;;;;23.84;100.00;98885.12;1791445;80;21421;-67
2021/06/20 06:16:12;;;;;;;8.10;1.90;;;;;;;23.93;100.00;98876.93;1791099;80;20993;-67
2021/06/20 06:18:41;;;;;;;5.65;2.00;;;;;;;24.01;100.00;98874.59;1791153;79;20930;-66
2021/06/20 06:21:11;;;;;;;4.85;2.12;;;;;;;24.12;100.00;98865.81;1791082;80;21053;-67
2021/06/20 06:23:38;;;;;;;10.25;2.20;;;;;;;24.15;100.00;98859.77;1791086;79;20977;-67
2021/06/20 06:26:07;;;;;;;7.85;2.00;;;;;;;24.19;100.00;98845.61;1791163;79;22145;-67
2021/06/20 06:28:37;;;;;;;7.60;2.02;;;;;;;24.26;100.00;98846.92;1791371;79;21461;-67
2021/06/20 06:31:05;;;;;;;9.60;1.80;;;;;;;24.37;100.00;98837.67;1791107;80;21413;-66
2021/06/20 06:33:33;;;;;;;6.97;1.95;;;;;;;24.48;100.00;98840.98;1790326;80;20959;-68
2021/06/20 06:36:01;;;;;;;7.00;2.12;;;;;;;24.56;100.00;98839.12;1723448;83;20880;-67
2021/06/20 06:38:31;;;;;;;6.20;2.27;;;;;;;24.63;100.00;98833.23;1723302;83;20887;-67
2021/06/20 06:40:59;;;;;;;9.70;2.10;;;;;;;24.74;100.00;98832.48;1733050;82;20945;-67
2021/06/20 06:43:28;;;;;;;9.03;2.42;;;;;;;24.81;100.00;98820.30;1758347;81;20988;-67
2021/06/20 06:45:59;;;;;;;12.63;3.35;;;;;;;24.89;100.00;98811.19;1757482;81;21529;-67
2021/06/20 06:48:29;;;;;;;6.50;2.00;;;;;;;24.97;100.00;98808.81;1757971;80;20900;-68
2021/06/20 06:50:59;;;;;;;5.00;2.20;;;;;;;25.07;100.00;98802.34;1784659;80;21139;-68
2021/06/20 06:53:30;;;;;;;8.18;2.10;;;;;;;25.14;100.00;98811.73;1784495;80;20933;-68
2021/06/20 06:56:06;;;;;;;6.53;2.22;;;;;;;25.19;100.00;98813.63;1768232;80;20978;-68
2021/06/20 06:58:35;;;;;;;4.50;1.85;;;;;;;25.18;100.00;98816.43;1783863;80;20917;-67
2021/06/20 07:01:07;;;;;;;5.20;2.17;;;;;;;25.12;100.00;98823.12;1774959;80;20886;-67
2021/06/20 07:03:36;;;;;;;13.08;2.60;;;;;;;25.08;100.00;98829.23;1788907;80;21129;-68
2021/06/20 07:06:05;;;;;;;10.25;2.83;;;;;;;25.09;100.00;98835.48;1786986;80;20881;-67
2021/06/20 07:08:34;;;;;;;9.25;2.52;;;;;;;25.12;100.00;98833.06;1774085;80;20953;-67
2021/06/20 07:11:02;;;;;;;7.25;1.95;;;;;;;25.19;100.00;98826.25;1784029;80;20954;-67
2021/06/20 07:13:31;;;;;;;11.53;2.20;;;;;;;25.27;100.00;98814.42;1788565;80;20987;-67
2021/06/20 07:16:00;;;;;;;6.80;2.47;;;;;;;25.31;100.00;98819.98;1788613;80;21840;-67
2021/06/20 07:18:28;;;;;;;10.72;2.40;;;;;;;25.37;100.00;98814.14;1774988;80;20929;-67
2021/06/20 07:20:57;;;;;;;6.95;2.50;;;;;;;25.38;100.00;98809.98;1764553;80;21015;-69
2021/06/20 07:23:25;;;;;;;5.92;2.05;;;;;;;25.46;100.00;98813.48;1768859;80;20896;-69
2021/06/20 07:25:54;;;;;;;10.25;2.20;;;;;;;25.58;100.00;98811.27;1786967;80;20877;-67
2021/06/20 07:28:21;;;;;;;3.75;2.30;;;;;;;25.73;100.00;98819.63;1787363;80;21236;-69
2021/06/20 07:30:50;;;;;;;9.13;2.08;;;;;;;25.85;100.00;98827.81;1782019;80;20956;-68
2021/06/20 07:33:19;;;;;;;14.50;2.58;;;;;;;25.98;100.00;98827.27;1788447;80;21067;-67
2021/06/20 07:35:57;;;;;;;10.40;2.05;;;;;;;26.08;100.00;98828.34;1788846;80;21656;-67
2021/06/20 07:38:24;;;;;;;10.23;2.20;;;;;;;26.16;100.00;98828.64;1788593;80;20849;-69
2021/06/20 07:40:53;;;;;;;6.92;2.17;;;;;;;26.24;100.00;98829.41;1787226;80;21224;-69
2021/06/20 07:43:22;;;;;;;11.05;2.50;;;;;;;26.27;100.00;98827.83;1774933;80;20950;-67
2021/06/20 07:45:50;;;;;;;8.10;2.25;;;;;;;26.32;100.00;98822.94;1762947;80;20949;-69
2021/06/20 07:48:19;;;;;;;9.65;1.85;;;;;;;26.37;100.00;98822.62;1780936;80;21516;-67
2021/06/20 07:50:47;;;;;;;9.85;2.00;;;;;;;26.35;100.00;98815.98;1764748;80;21124;-68
2021/06/20 07:53:15;;;;;;;6.85;2.40;;;;;;;26.30;100.00;98803.26;1758209;81;21815;-67
2021/06/20 07:55:44;;;;;;;7.00;1.70;;;;;;;26.24;100.00;98812.70;1790449;79;20883;-68
2021/06/20 07:58:12;;;;;;;12.70;2.58;;;;;;;26.18;100.00;98807.75;1790767;79;20890;-66
2021/06/20 08:00:41;;;;;;;10.23;2.85;;;;;;;26.16;100.00;98811.55;1790518;79;21504;-66
2021/06/20 08:03:10;;;;;;;9.15;2.12;;;;;;;26.15;100.00;98812.05;1790840;79;20950;-67
2021/06/20 08:05:39;;;;;;;14.03;2.05;;;;;;;26.11;100.00;98812.39;1790496;79;21347;-65
2021/06/20 08:08:08;;;;;;;16.57;2.30;;;;;;;26.02;100.00;98807.19;1790743;79;21517;-68
2021/06/20 08:10:36;;;;;;;15.13;2.20;;;;;;;26.01;100.00;98809.48;1790433;79;21013;-67
2021/06/20 08:13:06;;;;;;;8.90;2.85;;;;;;;26.01;100.00;98805.42;1790482;79;20903;-67
2021/06/20 08:15:36;;;;;;;8.43;2.08;;;;;;;25.89;100.00;98803.64;1790527;80;21401;-68
2021/06/20 08:18:05;;;;;;;10.20;1.98;;;;;;;25.86;100.00;98793.05;1790407;79;21445;-69
2021/06/20 08:20:33;;;;;;;15.48;2.37;;;;;;;25.85;100.00;98785.44;1747029;80;20858;-69
2021/06/20 08:23:01;;;;;;;11.68;2.00;;;;;;;25.86;100.00;98762.84;1769611;79;20912;-69
2021/06/20 08:25:31;;;;;;;8.70;2.50;;;;;;;25.88;100.00;98754.13;1784712;79;21443;-66
2021/06/20 08:27:59;;;;;;;14.07;2.08;;;;;;;25.86;100.00;98720.09;1773470;80;20838;-68
2021/06/20 08:30:28;;;;;;;11.00;2.45;;;;;;;25.86;100.00;98697.13;1790726;80;21198;-67
2021/06/20 08:32:56;;;;;;;15.35;3.47;;;;;;;25.86;100.00;98689.89;1789652;79;20948;-67
2021/06/20 08:35:26;;;;;;;13.03;2.70;;;;;;;25.91;100.00;98697.64;1791060;79;20913;-67
2021/06/20 08:37:55;;;;;;;16.30;4.35;;;;;;;25.99;100.00;98696.57;1784700;79;21027;-68
2021/06/20 08:40:28;;;;;;;15.08;3.52;;;;;;;26.11;100.00;98666.42;1776664;79;20936;-76
2021/06/20 08:42:58;;;;;;;16.48;3.47;;;;;;;26.23;100.00;98652.81;1780693;79;21835;-69
2021/06/20 08:45:30;;;;;;;20.92;3.02;;;;;;;26.34;100.00;98624.47;1771872;80;21467;-70
2021/06/20 08:47:57;;;;;;;17.73;2.90;;;;;;;26.42;100.00;98594.11;1774673;80;21471;-70
2021/06/20 08:50:25;;;;;;;19.82;3.22;;;;;;;26.47;100.00;98597.31;1771955;80;21036;-70
2021/06/20 08:52:54;;;;;;;17.57;2.47;;;;;;;26.52;100.00;98596.48;1778815;80;21531;-68
2021/06/20 08:55:23;;;;;;;15.80;2.67;;;;;;;26.50;100.00;98593.05;1774885;80;21172;-68
2021/06/20 08:57:59;;;;;;;22.87;2.75;;;;;;;26.50;100.00;98585.42;1782325;80;20948;-68
2021/06/20 09:00:22;;;;;;;20.57;2.77;;;;;;;26.47;100.00;98594.61;1771825;80;20976;-68
2021/06/20 09:03:01;;;;;;;21.10;3.05;;;;;;;26.45;100.00;98602.47;1784046;80;20952;-68
2021/06/20 09:05:30;;;;;;;15.08;3.08;;;;;;;26.48;100.00;98602.23;1780465;80;20958;-68
2021/06/20 09:07:57;;;;;;;14.03;2.70;;;;;;;26.49;100.00;98607.55;1765450;80;21166;-68
2021/06/20 09:10:28;;;;;;;19.55;3.12;;;;;;;26.43;100.00;98608.50;1779792;80;21060;-68
2021/06/20 09:12:58;;;;;;;20.35;2.62;;;;;;;26.26;100.00;98612.50;1760952;81;21157;-68
2021/06/20 09:15:28;;;;;;;25.40;3.67;;;;;;;26.09;100.00;98626.48;1779686;80;21590;-68
2021/06/20 09:18:04;;;;;;;22.73;3.52;;;;;;;25.98;100.00;98620.53;1792175;80;21100;-68
2021/06/20 09:20:44;;;;;;;21.65;3.05;;;;;;;25.85;100.00;98625.16;1757153;81;21211;-68
2021/06/20 09:23:17;;;;;;;21.97;3.02;;;;;;;25.75;100.00;98617.39;1750224;80;20858;-68
2021/06/20 09:25:48;;;;;;;26.65;3.35;;;;;;;25.66;100.00;98610.36;1750379;80;20897;-68
2021/06/20 09:28:16;;;;;;;23.25;3.25;;;;;;;25.55;100.00;98599.48;1786021;80;20929;-68
2021/06/20 09:30:49;;;;;;;30.40;2.83;;;;;;;25.47;100.00;98611.81;1788584;80;20933;-68
2021/06/20 10:03:37;;;;;;;23.15;3.27;;;;;;;26.05;100.00;98651.54;1786742;79;22684;-65
2021/06/20 10:06:05;;;;;;;22.13;2.15;;;;;;;26.14;100.00;98652.17;1752398;81;20965;-67
2021/06/20 10:08:35;;;;;;;18.40;2.27;;;;;;;26.21;100.00;98658.83;1745324;82;21131;-67
2021/06/20 10:11:03;;;;;;;22.40;3.50;;;;;;;26.25;100.00;98655.39;1746002;81;20971;-67
2021/06/20 10:13:31;;;;;;;21.23;2.70;;;;;;;26.24;100.00;98641.50;1758012;81;20919;-67
2021/06/20 10:16:16;;;;;;;16.60;2.00;;;;;;;26.20;100.00;98630.07;1757868;81;21454;-67
2021/06/20 10:19:01;;;;;;;23.10;2.60;;;;;;;26.16;100.00;98620.97;1745493;82;20845;-68
2021/06/20 10:21:38;;;;;;;18.90;2.12;;;;;;;26.08;100.00;98612.59;1767413;80;21848;-68
2021/06/20 10:24:16;;;;;;;11.28;1.82;;;;;;;26.00;100.00;98609.11;1758062;81;21399;-68
2021/06/20 10:26:58;;;;;;;22.87;2.02;;;;;;;25.92;100.00;98591.28;1744810;82;21640;-68
2021/06/20 10:29:34;;;;;;;14.50;2.37;;;;;;;25.90;100.00;98583.78;1744960;81;21408;-68
2021/06/20 10:32:15;;;;;;;15.70;2.40;;;;;;;25.86;100.00;98572.84;1756978;81;21291;-67
2021/06/20 10:35:01;;;;;;;27.55;3.47;;;;;;;25.81;100.00;98564.23;1772091;80;21158;-67
2021/06/20 10:37:34;;;;;;;12.75;2.37;;;;;;;25.75;100.00;98568.77;1773703;80;21010;-67
2021/06/20 10:40:22;;;;;;;21.70;2.80;;;;;;;25.61;100.00;98578.75;1764982;81;21426;-68
2021/06/20 10:42:52;;;;;;;13.95;2.58;;;;;;;25.50;100.00;98590.84;1760829;80;20974;-68
2021/06/20 10:45:41;;;;;;;9.35;1.92;;;;;;;25.42;100.00;98598.66;1767470;81;21040;-71
2021/06/20 10:48:15;;;;;;;10.10;2.00;;;;;;;25.37;100.00;98605.75;1767184;80;21168;-70
2021/06/20 10:50:55;;;;;;;20.88;2.22;;;;;;;25.31;100.00;98617.50;1767235;80;20890;-68
2021/06/20 10:53:25;;;;;;;9.23;1.65;;;;;;;25.29;100.00;98643.75;1767084;80;20954;-71
2021/06/20 10:55:56;;;;;;;13.95;2.05;;;;;;;25.28;100.00;98643.38;1767269;80;21571;-72
2021/06/20 10:58:29;;;;;;;9.38;1.75;;;;;;;25.27;100.00;98649.27;1766760;80;21649;-73
2021/06/20 11:01:11;;;;;;;17.57;2.00;;;;;;;25.25;100.00;98646.30;1766037;80;21440;-72
2021/06/20 11:03:53;;;;;;;18.75;2.30;;;;;;;25.24;100.00;98648.14;1755677;81;20967;-71
2021/06/20 11:06:23;;;;;;;13.80;1.72;;;;;;;25.22;100.00;98653.28;1752970;81;21434;-72
2021/06/20 11:09:00;;;;;;;8.15;1.72;;;;;;;25.22;100.00;98655.48;1756092;81;21628;-71
2021/06/20 11:11:35;;;;;;;20.27;3.25;;;;;;;25.22;100.00;98658.19;1755764;81;21385;-71
2021/06/20 11:14:07;;;;;;;11.33;2.85;;;;;;;25.22;100.00;98666.77;1755926;81;21529;-72
2021/06/20 11:16:43;;;;;;;14.00;2.52;;;;;;;25.20;100.00;98680.88;1755641;81;20939;-71
2021/06/20 11:19:16;;;;;;;11.12;2.95;;;;;;;25.21;100.00;98707.75;1755768;81;20963;-73
2021/06/20 11:21:50;;;;;;;17.48;2.55;;;;;;;25.19;100.00;98725.03;1755916;81;20895;-71
2021/06/20 11:24:28;;;;;;;18.52;2.27;;;;;;;25.15;100.00;98728.93;1755707;81;20899;-72
2021/06/20 11:27:05;;;;;;;12.35;2.25;;;;;;;25.06;100.00;98731.29;1755837;81;21150;-72
2021/06/20 11:30:00;;;;;;;18.57;2.75;;;;;;;24.95;100.00;98741.09;1755885;81;20918;-72
2021/06/20 11:32:31;;;;;;;12.00;2.02;;;;;;;24.83;100.00;98745.52;1755330;81;21077;-72
2021/06/20 11:35:04;;;;;;;16.00;2.12;;;;;;;24.76;100.00;98738.35;1755970;81;21508;-73
2021/06/20 11:37:35;;;;;;;17.05;2.02;;;;;;;24.74;100.00;98748.39;1755800;81;20850;-71
2021/06/20 11:40:15;;;;;;;17.20;2.45;;;;;;;24.70;100.00;98746.02;1755862;81;21430;-73
2021/06/20 11:42:46;;;;;;;10.80;2.37;;;;;;;24.70;100.00;98736.58;1755736;81;20978;-72
2021/06/20 11:45:20;;;;;;;14.65;1.87;;;;;;;24.70;100.00;98722.60;1731106;81;21488;-73
2021/06/20 11:47:52;;;;;;;13.53;2.25;;;;;;;24.75;100.00;98727.19;1755977;81;20951;-73
2021/06/20 11:50:28;;;;;;;8.95;1.77;;;;;;;24.83;100.00;98723.94;1756013;81;20939;-72
2021/06/20 11:53:02;;;;;;;20.37;2.83;;;;;;;24.91;100.00;98722.05;1755627;81;21506;-73
2021/06/20 11:55:43;;;;;;;14.38;2.30;;;;;;;25.01;100.00;98720.45;1755919;81;21536;-72
2021/06/20 11:58:13;;;;;;;12.23;2.27;;;;;;;25.16;100.00;98717.16;1755751;81;20911;-72
2021/06/20 12:00:42;;;;;;;13.93;2.20;;;;;;;25.32;100.00;98713.72;1756054;81;20884;-72
2021/06/20 12:03:13;;;;;;;14.58;2.47;;;;;;;25.47;100.00;98703.13;1755557;81;20922;-73
2021/06/20 12:05:49;;;;;;;15.43;2.42;;;;;;;25.66;100.00;98703.55;1755836;81;21778;-72
2021/06/20 12:08:19;;;;;;;16.17;2.75;;;;;;;25.88;100.00;98711.39;1755709;81;21548;-72
2021/06/20 12:10:49;;;;;;;19.80;2.42;;;;;;;26.02;100.00;98709.88;1756013;81;20955;-72
2021/06/20 12:13:18;;;;;;;15.43;3.17;;;;;;;25.99;100.00;98700.14;1755652;81;20934;-73
2021/06/20 12:15:49;;;;;;;10.38;2.22;;;;;;;25.98;100.00;98694.84;1755559;81;20876;-73
2021/06/20 12:18:16;;;;;;;19.60;2.12;;;;;;;26.02;100.00;98690.97;1755531;81;21168;-73
2021/06/20 12:20:51;;;;;;;16.15;2.35;;;;;;;26.04;100.00;98689.87;1755823;81;21402;-72
2021/06/20 12:23:34;;;;;;;18.17;2.00;;;;;;;26.03;100.00;98694.04;1755644;81;20891;-73
2021/06/20 12:26:02;;;;;;;14.00;2.30;;;;;;;26.07;100.00;98694.17;1755875;81;20978;-73
2021/06/20 12:28:29;;;;;;;12.70;2.47;;;;;;;26.15;100.00;98690.39;1755630;81;20990;-69
2021/06/20 12:30:57;;;;;;;11.93;2.45;;;;;;;26.24;100.00;98684.77;1755718;81;21548;-72
2021/06/20 12:33:27;;;;;;;12.80;2.02;;;;;;;26.39;100.00;98689.50;1755598;81;20883;-71
2021/06/20 12:36:01;;;;;;;9.08;2.42;;;;;;;26.58;100.00;98692.52;1755649;81;20899;-71
2021/06/20 12:38:33;;;;;;;17.75;2.12;;;;;;;26.78;100.00;98690.93;1755785;81;21537;-70
2021/06/20 12:41:11;;;;;;;15.83;1.98;;;;;;;26.89;100.00;98685.03;1755770;81;20990;-70
2021/06/20 12:43:37;;;;;;;20.95;2.50;;;;;;;27.04;100.00;98694.31;1753822;81;21185;-72
2021/06/20 12:46:09;;;;;;;11.30;1.85;;;;;;;27.12;100.00;98695.41;1755522;81;21015;-72
2021/06/20 12:48:41;;;;;;;12.80;2.15;;;;;;;27.31;100.00;98701.55;1756118;81;20999;-72
2021/06/20 12:51:11;;;;;;;16.42;2.50;;;;;;;27.53;100.00;98689.34;1756110;81;20907;-73
2021/06/20 12:53:43;;;;;;;21.20;3.10;;;;;;;27.78;100.00;98702.23;1755637;81;20930;-72
2021/06/20 12:56:26;;;;;;;13.65;2.15;;;;;;;27.87;100.00;98696.03;1755888;81;22015;-72
2021/06/20 12:58:59;;;;;;;14.10;2.55;;;;;;;27.90;100.00;98698.48;1755436;81;20860;-73
2021/06/20 13:01:29;;;;;;;20.15;3.02;;;;;;;27.93;100.00;98696.05;1755498;81;20994;-69
2021/06/20 13:04:11;;;;;;;10.70;1.60;;;;;;;27.99;100.00;98697.74;1755335;81;21532;-70
2021/06/20 13:06:38;;;;;;;15.23;2.37;;;;;;;28.00;100.00;98694.04;1755894;81;21007;-69
2021/06/20 14:47:59;;;;;;;10.78;1.98;;;;;;;26.65;100.00;98697.81;1765378;79;22127;-73
2021/06/20 14:50:29;;;;;;;5.22;1.37;;;;;;;26.69;100.00;98697.94;1761829;80;20992;-72
2021/06/20 14:52:58;;;;;;;7.85;1.30;;;;;;;26.64;100.00;98692.03;1727517;81;21084;-72
2021/06/20 14:55:26;;;;;;;4.25;1.45;;;;;;;26.57;100.00;98686.24;1731833;81;20967;-73
2021/06/20 14:57:54;;;;;;;6.05;1.30;;;;;;;26.48;100.00;98691.48;1738383;81;20987;-73
2021/06/20 15:00:22;;;;;;;6.80;1.32;;;;;;;26.37;100.00;98684.70;1756513;80;20942;-73
2021/06/20 15:02:50;;;;;;;8.33;1.40;;;;;;;26.35;100.00;98688.39;1743259;80;21435;-73
2021/06/20 15:05:18;;;;;;;6.60;1.30;;;;;;;26.38;100.00;98690.48;1739203;82;21146;-72
2021/06/20 15:07:46;;;;;;;5.35;1.30;;;;;;;26.41;100.00;98688.40;1747631;80;20993;-74
2021/06/20 15:10:16;;;;;;;9.68;1.95;;;;;;;26.42;100.00;98687.41;1747756;81;20990;-72
2021/06/20 15:12:44;;;;;;;6.00;1.22;;;;;;;26.36;100.00;98696.01;1742375;81;21551;-72
2021/06/20 15:15:13;;;;;;;6.15;1.37;;;;;;;26.27;100.00;98687.23;1738724;82;21548;-73
2021/06/20 15:17:40;;;;;;;5.28;1.55;;;;;;;26.22;100.00;98690.78;1738617;82;21121;-73
2021/06/20 15:20:08;;;;;;;8.35;1.60;;;;;;;26.18;100.00;98701.45;1738418;82;20896;-74
2021/06/20 15:22:40;;;;;;;8.68;1.50;;;;;;;26.15;100.00;98703.05;1738874;82;20942;-74
2021/06/20 15:25:09;;;;;;;6.00;1.40;;;;;;;26.11;100.00;98706.97;1738210;82;21461;-73
2021/06/20 15:27:37;;;;;;;11.57;1.40;;;;;;;26.09;100.00;98702.17;1737228;82;21021;-72
2021/06/20 15:30:08;;;;;;;11.80;1.60;;;;;;;26.06;100.00;98708.67;1738122;82;21042;-73
2021/06/20 15:32:44;;;;;;;8.43;1.07;;;;;;;26.01;100.00;98701.37;1738881;82;20952;-72
2021/06/20 15:35:13;;;;;;;15.50;1.67;;;;;;;25.98;100.00;98705.66;1738448;82;20942;-73
2021/06/20 15:37:45;;;;;;;7.30;1.10;;;;;;;25.93;100.00;98706.01;1738605;82;21549;-72
2021/06/20 15:40:13;;;;;;;7.28;1.77;;;;;;;25.89;100.00;98696.91;1737420;82;21041;-73
2021/06/20 15:42:40;;;;;;;13.90;1.60;;;;;;;25.85;100.00;98700.81;1736244;82;21999;-73
2021/06/20 15:45:10;;;;;;;6.97;1.02;;;;;;;25.81;100.00;98704.73;1736168;82;20974;-73
2021/06/20 15:47:44;;;;;;;6.90;1.30;;;;;;;25.80;100.00;98700.30;1737841;82;21410;-73
2021/06/20 15:50:15;;;;;;;8.48;1.10;;;;;;;25.84;100.00;98705.84;1738171;82;20935;-72
2021/06/20 15:52:44;;;;;;;5.55;1.17;;;;;;;25.89;100.00;98706.36;1685135;82;20951;-71
2021/06/20 15:55:13;;;;;;;21.97;1.87;;;;;;;25.95;100.00;98704.05;1738014;82;21177;-71
2021/06/20 15:57:42;;;;;;;13.60;1.70;;;;;;;26.03;100.00;98707.55;1738148;82;20939;-65
2021/06/20 16:00:13;;;;;;;10.45;1.47;;;;;;;26.10;100.00;98705.24;1738087;82;20954;-69
2021/06/20 16:02:43;;;;;;;10.40;1.60;;;;;;;26.14;100.00;98707.59;1738361;82;21019;-70
2021/06/20 16:05:13;;;;;;;4.05;1.42;;;;;;;26.16;100.00;98702.93;1737918;82;20999;-72
2021/06/20 16:07:41;;;;;;;7.78;1.30;;;;;;;26.16;100.00;98708.83;1738052;82;21142;-71
2021/06/20 16:10:12;;;;;;;5.67;1.40;;;;;;;26.13;100.00;98718.03;1736933;82;20898;-71
2021/06/20 16:12:39;;;;;;;5.80;1.35;;;;;;;26.12;100.00;98722.20;1737089;82;20958;-72
2021/06/20 16:15:09;;;;;;;6.78;1.55;;;;;;;26.08;100.00;98722.06;1737312;82;20895;-72
2021/06/20 16:17:37;;;;;;;9.60;1.40;;;;;;;26.02;100.00;98718.86;1737876;82;20907;-71
2021/06/20 16:20:08;;;;;;;8.15;1.50;;;;;;;25.95;100.00;98717.56;1738378;82;21740;-70
2021/06/20 16:22:35;;;;;;;4.72;1.07;;;;;;;25.87;100.00;98715.93;1738026;82;20899;-72
2021/06/20 16:25:08;;;;;;;11.53;1.55;;;;;;;25.80;100.00;98709.27;1738112;82;21458;-71
2021/06/20 16:27:37;;;;;;;6.03;1.17;;;;;;;25.71;100.00;98714.88;1738119;82;20911;-71
2021/06/20 16:30:07;;;;;;;7.08;1.65;;;;;;;25.62;100.00;98707.42;1738414;82;20918;-72
2021/06/20 16:32:35;;;;;;;7.15;1.30;;;;;;;25.57;100.00;98710.09;1738087;82;21884;-71
2021/06/20 16:35:04;;;;;;;11.85;1.65;;;;;;;25.50;100.00;98705.61;1738027;82;20942;-71
2021/06/20 16:37:34;;;;;;;6.92;1.70;;;;;;;25.41;100.00;98699.05;1737961;82;21444;-71
2021/06/20 16:40:07;;;;;;;6.05;1.40;;;;;;;25.33;100.00;98700.59;1738242;82;20906;-71
2021/06/20 16:42:36;;;;;;;4.45;1.05;;;;;;;25.24;100.00;98696.73;1738166;82;20895;-70